sensor_id;sensor_type;location;lat;lon;timestamp;P1;durP1;ratioP1;P2;durP2;ratioP2
65533;SDS011;53640;55.838;37.184;2023-05-07T00:00:18;4.90;;;3.53;;
65533;SDS011;53640;55.838;37.184;2023-05-07T00:02:45;7.35;;;3.53;;
65533;SDS011;53640;55.838;37.184;2023-05-07T00:05:12;6.10;;;3.47;;
65533;SDS011;53640;55.838;37.184;2023-05-07T00:07:39;3.38;;;3.08;;
65533;SDS011;53640;55.838;37.184;2023-05-07T00:10:06;5.78;;;3.30;;
65533;SDS011;53640;55.838;37.184;2023-05-07T00:12:34;4.88;;;3.08;;
65533;SDS011;53640;55.838;37.184;2023-05-07T00:15:02;6.10;;;3.65;;
65533;SDS011;53640;55.838;37.184;2023-05-07T00:17:33;4.95;;;3.38;;
65533;SDS011;53640;55.838;37.184;2023-05-07T00:20:00;5.63;;;3.50;;
65533;SDS011;53640;55.838;37.184;2023-05-07T00:22:27;10.57;;;3.20;;
65533;SDS011;53640;55.838;37.184;2023-05-07T00:24:56;5.00;;;3.40;;
65533;SDS011;53640;55.838;37.184;2023-05-07T00:27:23;4.15;;;3.42;;
65533;SDS011;53640;55.838;37.184;2023-05-07T00:29:51;7.32;;;4.00;;
65533;SDS011;53640;55.838;37.184;2023-05-07T00:32:18;5.43;;;3.63;;
65533;SDS011;53640;55.838;37.184;2023-05-07T00:34:44;6.22;;;4.05;;
65533;SDS011;53640;55.838;37.184;2023-05-07T00:37:13;5.43;;;3.70;;
65533;SDS011;53640;55.838;37.184;2023-05-07T00:39:44;5.18;;;3.40;;
65533;SDS011;53640;55.838;37.184;2023-05-07T00:42:10;4.60;;;2.97;;
65533;SDS011;53640;55.838;37.184;2023-05-07T00:44:37;6.18;;;3.00;;
65533;SDS011;53640;55.838;37.184;2023-05-07T00:47:05;5.25;;;3.35;;
65533;SDS011;53640;55.838;37.184;2023-05-07T00:49:38;3.83;;;3.03;;
65533;SDS011;53640;55.838;37.184;2023-05-07T00:52:11;3.58;;;2.80;;
65533;SDS011;53640;55.838;37.184;2023-05-07T00:54:40;4.13;;;2.67;;
65533;SDS011;53640;55.838;37.184;2023-05-07T00:57:11;2.85;;;2.58;;
65533;SDS011;53640;55.838;37.184;2023-05-07T00:59:44;6.05;;;2.70;;
65533;SDS011;53640;55.838;37.184;2023-05-07T01:02:11;4.65;;;2.78;;
65533;SDS011;53640;55.838;37.184;2023-05-07T01:04:38;3.85;;;2.50;;
65533;SDS011;53640;55.838;37.184;2023-05-07T01:07:14;4.18;;;2.60;;
65533;SDS011;53640;55.838;37.184;2023-05-07T01:09:41;3.72;;;2.65;;
65533;SDS011;53640;55.838;37.184;2023-05-07T01:12:07;3.10;;;2.40;;
65533;SDS011;53640;55.838;37.184;2023-05-07T01:14:39;5.80;;;3.08;;
65533;SDS011;53640;55.838;37.184;2023-05-07T01:17:10;4.57;;;2.70;;
65533;SDS011;53640;55.838;37.184;2023-05-07T01:19:39;3.55;;;2.30;;
65533;SDS011;53640;55.838;37.184;2023-05-07T01:22:09;3.65;;;2.72;;
65533;SDS011;53640;55.838;37.184;2023-05-07T01:24:51;4.03;;;2.65;;
65533;SDS011;53640;55.838;37.184;2023-05-07T01:27:20;4.35;;;2.80;;
65533;SDS011;53640;55.838;37.184;2023-05-07T01:29:50;6.22;;;3.05;;
65533;SDS011;53640;55.838;37.184;2023-05-07T01:32:18;4.90;;;2.60;;
65533;SDS011;53640;55.838;37.184;2023-05-07T01:35:19;5.30;;;2.60;;
65533;SDS011;53640;55.838;37.184;2023-05-07T01:37:49;5.32;;;2.58;;
65533;SDS011;53640;55.838;37.184;2023-05-07T01:40:17;2.78;;;2.30;;
65533;SDS011;53640;55.838;37.184;2023-05-07T01:42:55;3.13;;;2.30;;
65533;SDS011;53640;55.838;37.184;2023-05-07T01:45:26;3.55;;;2.60;;
65533;SDS011;53640;55.838;37.184;2023-05-07T01:47:58;2.50;;;2.00;;
65533;SDS011;53640;55.838;37.184;2023-05-07T01:50:25;2.92;;;2.47;;
65533;SDS011;53640;55.838;37.184;2023-05-07T01:52:53;4.63;;;2.53;;
65533;SDS011;53640;55.838;37.184;2023-05-07T01:55:20;7.95;;;2.65;;
65533;SDS011;53640;55.838;37.184;2023-05-07T01:57:47;5.07;;;3.17;;
65533;SDS011;53640;55.838;37.184;2023-05-07T02:00:14;3.92;;;3.20;;
65533;SDS011;53640;55.838;37.184;2023-05-07T02:02:45;3.67;;;2.67;;
65533;SDS011;53640;55.838;37.184;2023-05-07T02:05:28;3.42;;;3.10;;
65533;SDS011;53640;55.838;37.184;2023-05-07T02:08:08;5.95;;;3.35;;
65533;SDS011;53640;55.838;37.184;2023-05-07T02:10:35;3.95;;;2.83;;
65533;SDS011;53640;55.838;37.184;2023-05-07T02:13:03;4.32;;;2.80;;
65533;SDS011;53640;55.838;37.184;2023-05-07T02:15:30;7.00;;;3.20;;
65533;SDS011;53640;55.838;37.184;2023-05-07T02:18:04;4.57;;;3.03;;
65533;SDS011;53640;55.838;37.184;2023-05-07T02:20:33;6.00;;;3.30;;
65533;SDS011;53640;55.838;37.184;2023-05-07T02:23:00;5.15;;;3.30;;
65533;SDS011;53640;55.838;37.184;2023-05-07T02:25:33;4.38;;;3.28;;
65533;SDS011;53640;55.838;37.184;2023-05-07T02:28:03;5.85;;;3.40;;
65533;SDS011;53640;55.838;37.184;2023-05-07T02:30:45;6.10;;;4.00;;
65533;SDS011;53640;55.838;37.184;2023-05-07T02:33:13;6.05;;;3.67;;
65533;SDS011;53640;55.838;37.184;2023-05-07T02:35:40;7.63;;;3.97;;
65533;SDS011;53640;55.838;37.184;2023-05-07T02:38:08;7.82;;;3.55;;
65533;SDS011;53640;55.838;37.184;2023-05-07T02:40:37;4.88;;;3.42;;
65533;SDS011;53640;55.838;37.184;2023-05-07T02:43:06;5.72;;;3.33;;
65533;SDS011;53640;55.838;37.184;2023-05-07T02:45:33;7.55;;;4.10;;
65533;SDS011;53640;55.838;37.184;2023-05-07T02:48:03;9.57;;;4.15;;
65533;SDS011;53640;55.838;37.184;2023-05-07T02:50:52;7.43;;;3.75;;
65533;SDS011;53640;55.838;37.184;2023-05-07T02:53:19;10.05;;;4.13;;
65533;SDS011;53640;55.838;37.184;2023-05-07T02:55:48;5.05;;;3.22;;
65533;SDS011;53640;55.838;37.184;2023-05-07T02:58:15;6.45;;;3.75;;
65533;SDS011;53640;55.838;37.184;2023-05-07T03:00:42;5.88;;;3.15;;
65533;SDS011;53640;55.838;37.184;2023-05-07T03:03:29;6.22;;;3.38;;
65533;SDS011;53640;55.838;37.184;2023-05-07T03:05:56;3.85;;;2.97;;
65533;SDS011;53640;55.838;37.184;2023-05-07T03:08:24;5.78;;;3.17;;
65533;SDS011;53640;55.838;37.184;2023-05-07T03:10:50;3.35;;;2.60;;
65533;SDS011;53640;55.838;37.184;2023-05-07T03:13:17;3.55;;;2.90;;
65533;SDS011;53640;55.838;37.184;2023-05-07T03:15:45;4.82;;;3.00;;
65533;SDS011;53640;55.838;37.184;2023-05-07T03:18:12;4.15;;;3.10;;
65533;SDS011;53640;55.838;37.184;2023-05-07T03:20:39;4.40;;;2.50;;
65533;SDS011;53640;55.838;37.184;2023-05-07T03:23:06;3.72;;;2.50;;
65533;SDS011;53640;55.838;37.184;2023-05-07T03:25:38;3.40;;;2.78;;
65533;SDS011;53640;55.838;37.184;2023-05-07T03:28:04;6.30;;;2.85;;
65533;SDS011;53640;55.838;37.184;2023-05-07T03:30:47;4.82;;;2.58;;
65533;SDS011;53640;55.838;37.184;2023-05-07T03:33:17;3.13;;;2.50;;
65533;SDS011;53640;55.838;37.184;2023-05-07T03:35:44;3.65;;;2.67;;
65533;SDS011;53640;55.838;37.184;2023-05-07T03:38:14;2.40;;;2.20;;
65533;SDS011;53640;55.838;37.184;2023-05-07T03:40:41;3.85;;;2.67;;
65533;SDS011;53640;55.838;37.184;2023-05-07T03:43:08;2.53;;;2.33;;
65533;SDS011;53640;55.838;37.184;2023-05-07T03:45:38;5.05;;;2.70;;
65533;SDS011;53640;55.838;37.184;2023-05-07T03:48:16;3.05;;;2.50;;
65533;SDS011;53640;55.838;37.184;2023-05-07T03:50:43;3.15;;;2.70;;
65533;SDS011;53640;55.838;37.184;2023-05-07T03:53:10;3.10;;;2.80;;
65533;SDS011;53640;55.838;37.184;2023-05-07T03:55:39;3.42;;;2.67;;
65533;SDS011;53640;55.838;37.184;2023-05-07T03:58:07;3.45;;;2.40;;
65533;SDS011;53640;55.838;37.184;2023-05-07T04:00:34;2.75;;;2.55;;
65533;SDS011;53640;55.838;37.184;2023-05-07T04:03:12;2.67;;;2.47;;
65533;SDS011;53640;55.838;37.184;2023-05-07T04:05:38;7.60;;;3.05;;
65533;SDS011;53640;55.838;37.184;2023-05-07T04:08:05;2.40;;;2.13;;
65533;SDS011;53640;55.838;37.184;2023-05-07T04:10:45;2.03;;;1.80;;
65533;SDS011;53640;55.838;37.184;2023-05-07T04:13:12;2.15;;;1.95;;
65533;SDS011;53640;55.838;37.184;2023-05-07T04:15:39;2.33;;;2.13;;
65533;SDS011;53640;55.838;37.184;2023-05-07T04:18:11;3.73;;;2.40;;
65533;SDS011;53640;55.838;37.184;2023-05-07T04:20:38;2.20;;;1.98;;
65533;SDS011;53640;55.838;37.184;2023-05-07T04:23:09;6.00;;;2.80;;
65533;SDS011;53640;55.838;37.184;2023-05-07T04:25:35;7.90;;;3.10;;
65533;SDS011;53640;55.838;37.184;2023-05-07T04:28:14;3.45;;;2.67;;
65533;SDS011;53640;55.838;37.184;2023-05-07T04:30:42;2.50;;;2.25;;
65533;SDS011;53640;55.838;37.184;2023-05-07T04:33:10;6.72;;;2.70;;
65533;SDS011;53640;55.838;37.184;2023-05-07T04:35:40;6.07;;;2.17;;
65533;SDS011;53640;55.838;37.184;2023-05-07T04:38:06;4.65;;;2.05;;
65533;SDS011;53640;55.838;37.184;2023-05-07T04:40:35;2.20;;;2.00;;
65533;SDS011;53640;55.838;37.184;2023-05-07T04:43:03;2.13;;;1.92;;
65533;SDS011;53640;55.838;37.184;2023-05-07T04:45:34;2.50;;;1.90;;
65533;SDS011;53640;55.838;37.184;2023-05-07T04:48:01;3.30;;;1.80;;
65533;SDS011;53640;55.838;37.184;2023-05-07T04:50:30;1.63;;;1.52;;
65533;SDS011;53640;55.838;37.184;2023-05-07T04:53:01;3.38;;;1.67;;
65533;SDS011;53640;55.838;37.184;2023-05-07T04:55:29;1.40;;;1.30;;
65533;SDS011;53640;55.838;37.184;2023-05-07T04:57:56;2.08;;;1.58;;
65533;SDS011;53640;55.838;37.184;2023-05-07T05:00:28;5.80;;;1.88;;
65533;SDS011;53640;55.838;37.184;2023-05-07T05:02:55;1.50;;;1.40;;
65533;SDS011;53640;55.838;37.184;2023-05-07T05:05:23;2.53;;;2.05;;
65533;SDS011;53640;55.838;37.184;2023-05-07T05:07:52;2.65;;;1.80;;
65533;SDS011;53640;55.838;37.184;2023-05-07T05:10:20;4.07;;;1.80;;
65533;SDS011;53640;55.838;37.184;2023-05-07T05:12:50;3.85;;;1.80;;
65533;SDS011;53640;55.838;37.184;2023-05-07T05:15:17;4.03;;;2.00;;
65533;SDS011;53640;55.838;37.184;2023-05-07T05:17:44;2.42;;;1.60;;
65533;SDS011;53640;55.838;37.184;2023-05-07T05:20:16;2.17;;;1.73;;
65533;SDS011;53640;55.838;37.184;2023-05-07T05:22:43;1.38;;;1.27;;
65533;SDS011;53640;55.838;37.184;2023-05-07T05:25:12;2.85;;;1.50;;
65533;SDS011;53640;55.838;37.184;2023-05-07T05:27:42;1.90;;;1.60;;
65533;SDS011;53640;55.838;37.184;2023-05-07T05:30:11;1.67;;;1.58;;
65533;SDS011;53640;55.838;37.184;2023-05-07T05:33:19;1.20;;;1.10;;
65533;SDS011;53640;55.838;37.184;2023-05-07T05:36:37;2.35;;;1.27;;
65533;SDS011;53640;55.838;37.184;2023-05-07T05:39:04;1.38;;;1.27;;
65533;SDS011;53640;55.838;37.184;2023-05-07T05:41:32;1.73;;;1.40;;
65533;SDS011;53640;55.838;37.184;2023-05-07T05:44:07;5.38;;;1.77;;
65533;SDS011;53640;55.838;37.184;2023-05-07T05:46:37;2.60;;;1.70;;
65533;SDS011;53640;55.838;37.184;2023-05-07T05:49:07;11.30;;;1.77;;
65533;SDS011;53640;55.838;37.184;2023-05-07T05:52:39;1.33;;;1.20;;
65533;SDS011;53640;55.838;37.184;2023-05-07T05:59:41;4.85;;;1.20;;
65533;SDS011;53640;55.838;37.184;2023-05-07T06:02:37;1.70;;;1.10;;
65533;SDS011;53640;55.838;37.184;2023-05-07T06:18:24;6.32;;;4.28;;
65533;SDS011;53640;55.838;37.184;2023-05-07T06:20:51;1.50;;;1.40;;
65533;SDS011;53640;55.838;37.184;2023-05-07T06:23:24;1.70;;;1.30;;
65533;SDS011;53640;55.838;37.184;2023-05-07T06:25:51;3.22;;;1.20;;
65533;SDS011;53640;55.838;37.184;2023-05-07T06:28:21;2.30;;;1.38;;
65533;SDS011;53640;55.838;37.184;2023-05-07T06:30:49;2.58;;;1.80;;
65533;SDS011;53640;55.838;37.184;2023-05-07T06:33:17;4.85;;;1.73;;
65533;SDS011;53640;55.838;37.184;2023-05-07T06:35:46;1.02;;;1.02;;
65533;SDS011;53640;55.838;37.184;2023-05-07T06:38:14;2.05;;;1.73;;
65533;SDS011;53640;55.838;37.184;2023-05-07T06:40:43;3.60;;;1.33;;
65533;SDS011;53640;55.838;37.184;2023-05-07T06:43:09;0.90;;;0.90;;
65533;SDS011;53640;55.838;37.184;2023-05-07T06:45:53;2.95;;;1.23;;
65533;SDS011;53640;55.838;37.184;2023-05-07T06:48:19;1.30;;;1.20;;
65533;SDS011;53640;55.838;37.184;2023-05-07T06:50:54;4.80;;;1.20;;
65533;SDS011;53640;55.838;37.184;2023-05-07T06:53:24;2.75;;;1.42;;
65533;SDS011;53640;55.838;37.184;2023-05-07T06:55:58;3.20;;;1.40;;
65533;SDS011;53640;55.838;37.184;2023-05-07T06:58:25;1.08;;;1.08;;
65533;SDS011;53640;55.838;37.184;2023-05-07T07:08:06;2.58;;;1.10;;
65533;SDS011;53640;55.838;37.184;2023-05-07T07:10:32;5.60;;;1.20;;
65533;SDS011;53640;55.838;37.184;2023-05-07T07:13:01;2.53;;;0.98;;
65533;SDS011;53640;55.838;37.184;2023-05-07T07:15:28;4.57;;;1.20;;
65533;SDS011;53640;55.838;37.184;2023-05-07T07:17:56;1.35;;;1.00;;
65533;SDS011;53640;55.838;37.184;2023-05-07T07:20:24;4.13;;;0.93;;
65533;SDS011;53640;55.838;37.184;2023-05-07T07:22:51;2.10;;;1.10;;
65533;SDS011;53640;55.838;37.184;2023-05-07T07:25:18;2.78;;;1.00;;
65533;SDS011;53640;55.838;37.184;2023-05-07T07:27:45;1.15;;;1.00;;
65533;SDS011;53640;55.838;37.184;2023-05-07T07:30:13;1.00;;;0.90;;
65533;SDS011;53640;55.838;37.184;2023-05-07T07:32:41;1.05;;;1.00;;
65533;SDS011;53640;55.838;37.184;2023-05-07T07:35:08;6.88;;;1.20;;
65533;SDS011;53640;55.838;37.184;2023-05-07T07:37:36;1.25;;;1.10;;
65533;SDS011;53640;55.838;37.184;2023-05-07T07:40:03;1.70;;;1.30;;
65533;SDS011;53640;55.838;37.184;2023-05-07T07:42:32;1.33;;;1.23;;
65533;SDS011;53640;55.838;37.184;2023-05-07T07:45:00;1.20;;;1.10;;
65533;SDS011;53640;55.838;37.184;2023-05-07T07:47:31;5.05;;;1.13;;
65533;SDS011;53640;55.838;37.184;2023-05-07T07:49:57;3.15;;;0.90;;
65533;SDS011;53640;55.838;37.184;2023-05-07T07:52:24;3.42;;;1.20;;
65533;SDS011;53640;55.838;37.184;2023-05-07T07:54:51;0.90;;;0.90;;
65533;SDS011;53640;55.838;37.184;2023-05-07T07:57:17;2.40;;;1.02;;
65533;SDS011;53640;55.838;37.184;2023-05-07T07:59:44;0.95;;;0.95;;
65533;SDS011;53640;55.838;37.184;2023-05-07T08:02:12;0.95;;;0.93;;
65533;SDS011;53640;55.838;37.184;2023-05-07T08:04:39;1.10;;;1.00;;
65533;SDS011;53640;55.838;37.184;2023-05-07T08:07:07;1.73;;;1.08;;
65533;SDS011;53640;55.838;37.184;2023-05-07T08:09:37;1.02;;;0.98;;
65533;SDS011;53640;55.838;37.184;2023-05-07T08:12:05;1.95;;;0.90;;
65533;SDS011;53640;55.838;37.184;2023-05-07T08:14:33;4.05;;;1.60;;
65533;SDS011;53640;55.838;37.184;2023-05-07T08:17:02;2.70;;;1.35;;
65533;SDS011;53640;55.838;37.184;2023-05-07T08:19:29;1.17;;;1.02;;
65533;SDS011;53640;55.838;37.184;2023-05-07T08:21:56;2.10;;;1.40;;
65533;SDS011;53640;55.838;37.184;2023-05-07T08:35:55;4.20;;;1.00;;
65533;SDS011;53640;55.838;37.184;2023-05-07T08:38:22;2.33;;;1.00;;
65533;SDS011;53640;55.838;37.184;2023-05-07T08:40:49;1.33;;;0.77;;
65533;SDS011;53640;55.838;37.184;2023-05-07T08:43:19;1.60;;;0.73;;
65533;SDS011;53640;55.838;37.184;2023-05-07T08:54:30;1.77;;;1.30;;
65533;SDS011;53640;55.838;37.184;2023-05-07T08:57:33;4.07;;;1.35;;
65533;SDS011;53640;55.838;37.184;2023-05-07T09:03:37;5.78;;;1.85;;
65533;SDS011;53640;55.838;37.184;2023-05-07T09:10:22;1.67;;;1.20;;
65533;SDS011;53640;55.838;37.184;2023-05-07T09:13:29;2.05;;;1.40;;
65533;SDS011;53640;55.838;37.184;2023-05-07T09:20:21;3.10;;;1.30;;
65533;SDS011;53640;55.838;37.184;2023-05-07T09:23:01;1.13;;;1.10;;
65533;SDS011;53640;55.838;37.184;2023-05-07T09:26:03;2.15;;;1.10;;
65533;SDS011;53640;55.838;37.184;2023-05-07T09:28:33;1.30;;;0.85;;
65533;SDS011;53640;55.838;37.184;2023-05-07T09:31:02;2.13;;;1.40;;
65533;SDS011;53640;55.838;37.184;2023-05-07T09:33:30;1.63;;;1.15;;
65533;SDS011;53640;55.838;37.184;2023-05-07T09:35:58;1.75;;;1.40;;
65533;SDS011;53640;55.838;37.184;2023-05-07T09:38:24;5.47;;;1.67;;
65533;SDS011;53640;55.838;37.184;2023-05-07T09:41:03;2.15;;;1.10;;
65533;SDS011;53640;55.838;37.184;2023-05-07T09:43:40;1.17;;;1.08;;
65533;SDS011;53640;55.838;37.184;2023-05-07T09:46:11;2.25;;;1.00;;
65533;SDS011;53640;55.838;37.184;2023-05-07T09:48:43;1.05;;;0.90;;
65533;SDS011;53640;55.838;37.184;2023-05-07T09:56:53;6.63;;;0.98;;
65533;SDS011;53640;55.838;37.184;2023-05-07T09:59:24;1.33;;;1.05;;
65533;SDS011;53640;55.838;37.184;2023-05-07T10:01:53;1.90;;;1.27;;
65533;SDS011;53640;55.838;37.184;2023-05-07T10:06:52;2.22;;;1.30;;
65533;SDS011;53640;55.838;37.184;2023-05-07T10:09:20;2.85;;;1.00;;
65533;SDS011;53640;55.838;37.184;2023-05-07T10:11:48;1.88;;;1.38;;
65533;SDS011;53640;55.838;37.184;2023-05-07T10:23:08;3.08;;;1.48;;
65533;SDS011;53640;55.838;37.184;2023-05-07T10:39:17;3.53;;;1.10;;
65533;SDS011;53640;55.838;37.184;2023-05-07T10:41:48;1.58;;;1.45;;
65533;SDS011;53640;55.838;37.184;2023-05-07T10:44:28;1.75;;;1.50;;
65533;SDS011;53640;55.838;37.184;2023-05-07T10:47:06;3.30;;;1.30;;
65533;SDS011;53640;55.838;37.184;2023-05-07T10:57:43;2.30;;;1.58;;
65533;SDS011;53640;55.838;37.184;2023-05-07T11:00:44;7.70;;;2.40;;
65533;SDS011;53640;55.838;37.184;2023-05-07T11:03:20;3.95;;;1.02;;
65533;SDS011;53640;55.838;37.184;2023-05-07T11:23:02;4.22;;;1.55;;
65533;SDS011;53640;55.838;37.184;2023-05-07T11:34:08;1.23;;;1.08;;
65533;SDS011;53640;55.838;37.184;2023-05-07T11:37:03;3.97;;;1.27;;
65533;SDS011;53640;55.838;37.184;2023-05-07T11:40:54;2.05;;;1.30;;
65533;SDS011;53640;55.838;37.184;2023-05-07T11:44:24;1.70;;;1.60;;
65533;SDS011;53640;55.838;37.184;2023-05-07T11:47:46;1.38;;;1.27;;
65533;SDS011;53640;55.838;37.184;2023-05-07T11:51:34;1.10;;;1.00;;
65533;SDS011;53640;55.838;37.184;2023-05-07T11:59:26;3.92;;;1.15;;
65533;SDS011;53640;55.838;37.184;2023-05-07T12:03:18;4.22;;;1.20;;
65533;SDS011;53640;55.838;37.184;2023-05-07T12:43:27;6.05;;;1.13;;
65533;SDS011;53640;55.838;37.184;2023-05-07T13:23:00;7.85;;;1.42;;
65533;SDS011;53640;55.838;37.184;2023-05-07T13:31:19;1.40;;;1.20;;
65533;SDS011;53640;55.838;37.184;2023-05-07T14:02:02;1.30;;;1.15;;
65533;SDS011;53640;55.838;37.184;2023-05-07T14:43:26;2.67;;;1.48;;
65533;SDS011;53640;55.838;37.184;2023-05-07T14:46:30;1.50;;;1.10;;
65533;SDS011;53640;55.838;37.184;2023-05-07T14:49:14;2.28;;;1.00;;
65533;SDS011;53640;55.838;37.184;2023-05-07T14:51:51;1.67;;;1.40;;
65533;SDS011;53640;55.838;37.184;2023-05-07T14:54:27;5.78;;;1.75;;
65533;SDS011;53640;55.838;37.184;2023-05-07T14:57:24;3.72;;;1.50;;
65533;SDS011;53640;55.838;37.184;2023-05-07T15:00:14;3.30;;;1.15;;
65533;SDS011;53640;55.838;37.184;2023-05-07T15:02:52;2.40;;;1.20;;
65533;SDS011;53640;55.838;37.184;2023-05-07T15:05:31;2.58;;;1.33;;
65533;SDS011;53640;55.838;37.184;2023-05-07T15:08:01;12.15;;;1.48;;
65533;SDS011;53640;55.838;37.184;2023-05-07T15:10:35;2.22;;;1.40;;
65533;SDS011;53640;55.838;37.184;2023-05-07T15:16:26;5.65;;;1.23;;
65533;SDS011;53640;55.838;37.184;2023-05-07T15:19:04;1.25;;;1.15;;
65533;SDS011;53640;55.838;37.184;2023-05-07T15:21:43;1.65;;;1.55;;
65533;SDS011;53640;55.838;37.184;2023-05-07T15:24:26;2.30;;;1.38;;
65533;SDS011;53640;55.838;37.184;2023-05-07T15:27:05;3.20;;;1.50;;
65533;SDS011;53640;55.838;37.184;2023-05-07T15:30:01;6.38;;;1.27;;
65533;SDS011;53640;55.838;37.184;2023-05-07T15:32:36;1.40;;;1.30;;
65533;SDS011;53640;55.838;37.184;2023-05-07T15:39:17;2.75;;;0.90;;
65533;SDS011;53640;55.838;37.184;2023-05-07T15:41:44;3.72;;;1.10;;
65533;SDS011;53640;55.838;37.184;2023-05-07T15:44:39;5.10;;;1.20;;
65533;SDS011;53640;55.838;37.184;2023-05-07T15:50:17;2.80;;;1.40;;
65533;SDS011;53640;55.838;37.184;2023-05-07T15:53:02;3.85;;;1.55;;
65533;SDS011;53640;55.838;37.184;2023-05-07T15:59:54;1.85;;;1.70;;
65533;SDS011;53640;55.838;37.184;2023-05-07T16:02:21;2.20;;;1.60;;
65533;SDS011;53640;55.838;37.184;2023-05-07T16:04:47;2.28;;;1.90;;
65533;SDS011;53640;55.838;37.184;2023-05-07T16:07:14;4.07;;;1.80;;
65533;SDS011;53640;55.838;37.184;2023-05-07T16:09:40;4.65;;;2.13;;
65533;SDS011;53640;55.838;37.184;2023-05-07T16:12:07;3.63;;;2.13;;
65533;SDS011;53640;55.838;37.184;2023-05-07T16:14:33;8.02;;;1.48;;
65533;SDS011;53640;55.838;37.184;2023-05-07T16:17:00;10.73;;;2.10;;
65533;SDS011;53640;55.838;37.184;2023-05-07T16:19:26;4.53;;;1.83;;
65533;SDS011;53640;55.838;37.184;2023-05-07T16:21:53;2.35;;;1.88;;
65533;SDS011;53640;55.838;37.184;2023-05-07T16:24:19;2.90;;;1.80;;
65533;SDS011;53640;55.838;37.184;2023-05-07T16:26:46;2.92;;;1.60;;
65533;SDS011;53640;55.838;37.184;2023-05-07T16:29:12;2.85;;;1.60;;
65533;SDS011;53640;55.838;37.184;2023-05-07T16:31:39;1.70;;;1.60;;
65533;SDS011;53640;55.838;37.184;2023-05-07T16:34:05;1.85;;;1.27;;
65533;SDS011;53640;55.838;37.184;2023-05-07T16:36:32;3.78;;;1.45;;
65533;SDS011;53640;55.838;37.184;2023-05-07T16:38:58;1.77;;;1.33;;
65533;SDS011;53640;55.838;37.184;2023-05-07T16:41:24;1.38;;;1.27;;
65533;SDS011;53640;55.838;37.184;2023-05-07T16:43:51;1.42;;;1.33;;
65533;SDS011;53640;55.838;37.184;2023-05-07T16:46:17;2.60;;;1.95;;
65533;SDS011;53640;55.838;37.184;2023-05-07T16:48:44;2.42;;;1.85;;
65533;SDS011;53640;55.838;37.184;2023-05-07T16:51:10;2.67;;;1.58;;
65533;SDS011;53640;55.838;37.184;2023-05-07T16:53:37;3.53;;;2.13;;
65533;SDS011;53640;55.838;37.184;2023-05-07T16:56:04;3.17;;;2.30;;
65533;SDS011;53640;55.838;37.184;2023-05-07T16:58:31;3.08;;;2.30;;
65533;SDS011;53640;55.838;37.184;2023-05-07T17:00:58;2.55;;;2.05;;
65533;SDS011;53640;55.838;37.184;2023-05-07T17:03:25;4.63;;;2.28;;
65533;SDS011;53640;55.838;37.184;2023-05-07T17:05:54;5.20;;;2.47;;
65533;SDS011;53640;55.838;37.184;2023-05-07T17:08:21;7.05;;;3.10;;
65533;SDS011;53640;55.838;37.184;2023-05-07T17:10:49;3.90;;;3.03;;
65533;SDS011;53640;55.838;37.184;2023-05-07T17:13:15;6.20;;;3.55;;
65533;SDS011;53640;55.838;37.184;2023-05-07T17:15:42;5.82;;;3.20;;
65533;SDS011;53640;55.838;37.184;2023-05-07T17:18:10;3.80;;;2.75;;
65533;SDS011;53640;55.838;37.184;2023-05-07T17:20:36;10.85;;;3.63;;
65533;SDS011;53640;55.838;37.184;2023-05-07T17:23:05;10.60;;;3.20;;
65533;SDS011;53640;55.838;37.184;2023-05-07T17:25:33;3.78;;;2.92;;
65533;SDS011;53640;55.838;37.184;2023-05-07T17:28:02;10.10;;;3.40;;
65533;SDS011;53640;55.838;37.184;2023-05-07T17:30:29;6.32;;;3.15;;
65533;SDS011;53640;55.838;37.184;2023-05-07T17:32:56;8.05;;;3.75;;
65533;SDS011;53640;55.838;37.184;2023-05-07T17:35:22;5.38;;;3.63;;
65533;SDS011;53640;55.838;37.184;2023-05-07T17:37:49;8.55;;;4.10;;
65533;SDS011;53640;55.838;37.184;2023-05-07T17:40:20;11.02;;;4.90;;
65533;SDS011;53640;55.838;37.184;2023-05-07T17:42:52;7.65;;;4.68;;
65533;SDS011;53640;55.838;37.184;2023-05-07T17:45:19;6.45;;;4.03;;
65533;SDS011;53640;55.838;37.184;2023-05-07T17:47:45;10.60;;;4.40;;
65533;SDS011;53640;55.838;37.184;2023-05-07T17:50:12;13.93;;;4.22;;
65533;SDS011;53640;55.838;37.184;2023-05-07T17:52:39;5.93;;;3.95;;
65533;SDS011;53640;55.838;37.184;2023-05-07T17:55:07;5.65;;;3.45;;
65533;SDS011;53640;55.838;37.184;2023-05-07T17:57:34;12.57;;;4.38;;
65533;SDS011;53640;55.838;37.184;2023-05-07T18:00:03;11.82;;;4.28;;
65533;SDS011;53640;55.838;37.184;2023-05-07T18:02:37;6.38;;;3.60;;
65533;SDS011;53640;55.838;37.184;2023-05-07T18:05:05;8.27;;;3.78;;
65533;SDS011;53640;55.838;37.184;2023-05-07T18:07:34;9.15;;;3.92;;
65533;SDS011;53640;55.838;37.184;2023-05-07T18:10:02;7.25;;;4.95;;
65533;SDS011;53640;55.838;37.184;2023-05-07T18:12:32;7.78;;;4.90;;
65533;SDS011;53640;55.838;37.184;2023-05-07T18:15:01;9.27;;;4.57;;
65533;SDS011;53640;55.838;37.184;2023-05-07T18:17:33;7.22;;;4.50;;
65533;SDS011;53640;55.838;37.184;2023-05-07T18:19:59;8.95;;;4.45;;
65533;SDS011;53640;55.838;37.184;2023-05-07T18:22:26;11.35;;;5.00;;
65533;SDS011;53640;55.838;37.184;2023-05-07T18:24:52;13.18;;;4.75;;
65533;SDS011;53640;55.838;37.184;2023-05-07T18:27:20;12.60;;;5.30;;
65533;SDS011;53640;55.838;37.184;2023-05-07T18:29:47;7.45;;;4.55;;
65533;SDS011;53640;55.838;37.184;2023-05-07T18:32:13;9.77;;;5.60;;
65533;SDS011;53640;55.838;37.184;2023-05-07T18:34:41;8.73;;;5.40;;
65533;SDS011;53640;55.838;37.184;2023-05-07T18:37:07;8.95;;;5.00;;
65533;SDS011;53640;55.838;37.184;2023-05-07T18:39:34;9.98;;;5.30;;
65533;SDS011;53640;55.838;37.184;2023-05-07T18:42:01;11.75;;;6.45;;
65533;SDS011;53640;55.838;37.184;2023-05-07T18:44:30;15.27;;;6.40;;
65533;SDS011;53640;55.838;37.184;2023-05-07T18:47:36;10.88;;;6.03;;
65533;SDS011;53640;55.838;37.184;2023-05-07T18:50:17;14.82;;;6.60;;
65533;SDS011;53640;55.838;37.184;2023-05-07T18:53:28;13.07;;;6.82;;
65533;SDS011;53640;55.838;37.184;2023-05-07T18:56:52;13.18;;;6.38;;
65533;SDS011;53640;55.838;37.184;2023-05-07T19:04:08;12.38;;;6.15;;
65533;SDS011;53640;55.838;37.184;2023-05-07T19:06:41;8.07;;;5.10;;
65533;SDS011;53640;55.838;37.184;2023-05-07T19:09:13;10.00;;;5.47;;
65533;SDS011;53640;55.838;37.184;2023-05-07T19:11:40;13.25;;;6.15;;
65533;SDS011;53640;55.838;37.184;2023-05-07T19:14:25;12.75;;;5.93;;
65533;SDS011;53640;55.838;37.184;2023-05-07T19:16:57;12.95;;;7.25;;
65533;SDS011;53640;55.838;37.184;2023-05-07T19:19:39;14.35;;;6.53;;
65533;SDS011;53640;55.838;37.184;2023-05-07T19:39:21;10.88;;;6.50;;
65533;SDS011;53640;55.838;37.184;2023-05-07T19:43:18;13.13;;;7.07;;
65533;SDS011;53640;55.838;37.184;2023-05-07T19:45:46;16.55;;;7.75;;
65533;SDS011;53640;55.838;37.184;2023-05-07T19:48:13;17.67;;;8.85;;
65533;SDS011;53640;55.838;37.184;2023-05-07T19:50:41;18.00;;;8.93;;
65533;SDS011;53640;55.838;37.184;2023-05-07T19:53:09;14.35;;;8.07;;
65533;SDS011;53640;55.838;37.184;2023-05-07T19:55:36;17.13;;;8.43;;
65533;SDS011;53640;55.838;37.184;2023-05-07T19:58:02;14.85;;;8.10;;
65533;SDS011;53640;55.838;37.184;2023-05-07T20:15:02;17.88;;;10.10;;
65533;SDS011;53640;55.838;37.184;2023-05-07T20:17:33;14.70;;;9.10;;
65533;SDS011;53640;55.838;37.184;2023-05-07T20:20:00;18.83;;;8.73;;
65533;SDS011;53640;55.838;37.184;2023-05-07T20:22:28;14.25;;;8.50;;
65533;SDS011;53640;55.838;37.184;2023-05-07T20:24:56;15.93;;;8.02;;
65533;SDS011;53640;55.838;37.184;2023-05-07T20:27:23;14.93;;;7.93;;
65533;SDS011;53640;55.838;37.184;2023-05-07T20:29:50;16.48;;;8.20;;